createdAt,value
2023-03-11T00:01:58.535Z,25.02
2023-03-11T00:04:29.194Z,25.02
2023-03-11T00:07:00.455Z,25.07
2023-03-11T00:09:36.564Z,25.06
2023-03-11T00:12:07.728Z,25.03
2023-03-11T00:14:37.868Z,25.13
2023-03-11T00:17:11.161Z,25.06
2023-03-11T00:19:42.631Z,25.03
2023-03-11T00:22:12.949Z,25.00
2023-03-11T00:24:42.726Z,24.96
2023-03-11T00:27:13.246Z,24.94
2023-03-11T00:29:43.301Z,24.93
2023-03-11T00:32:14.743Z,24.93
2023-03-11T00:34:45.388Z,24.96
2023-03-11T00:37:15.262Z,24.97
2023-03-11T00:39:46.465Z,24.97
2023-03-11T00:42:19.808Z,24.93
2023-03-11T00:44:50.673Z,24.90
2023-03-11T00:47:20.718Z,24.88
2023-03-11T00:49:52.155Z,24.86
2023-03-11T00:52:22.729Z,24.90
2023-03-11T00:54:52.759Z,24.87
2023-03-11T00:57:24.717Z,24.86
2023-03-11T00:59:55.605Z,24.80
2023-03-11T01:02:27.944Z,24.70
2023-03-11T01:04:58.501Z,24.65
2023-03-11T01:07:28.320Z,24.72
2023-03-11T01:09:59.473Z,24.80
2023-03-11T01:12:34.076Z,24.82
2023-03-11T01:15:05.146Z,24.80
2023-03-11T01:17:35.788Z,24.75
2023-03-11T01:20:08.352Z,24.72
2023-03-11T01:22:40.065Z,24.69
2023-03-11T01:25:12.532Z,24.67
2023-03-11T01:27:43.146Z,24.66
2023-03-11T01:30:17.555Z,24.66
2023-03-11T01:32:49.521Z,24.62
2023-03-11T01:35:21.662Z,24.53
2023-03-11T01:37:52.173Z,24.52
2023-03-11T01:40:33.399Z,24.45
2023-03-11T01:43:29.521Z,24.42
2023-03-11T01:45:59.774Z,24.32
2023-03-11T01:48:30.470Z,24.17
2023-03-11T01:51:01.428Z,24.09
2023-03-11T01:53:31.736Z,24.08
2023-03-11T01:56:04.532Z,24.00
2023-03-11T01:58:39.444Z,24.04
2023-03-11T02:01:10.246Z,24.05
2023-03-11T02:03:43.458Z,24.01
2023-03-11T02:06:19.683Z,23.94
2023-03-11T02:08:50.539Z,23.84
2023-03-11T02:11:26.895Z,23.73
2023-03-11T02:14:02.998Z,23.67
2023-03-11T02:16:34.070Z,23.59
2023-03-11T02:19:33.401Z,23.49
2023-03-11T02:22:05.463Z,23.45
2023-03-11T02:24:53.185Z,23.36
2023-03-11T02:27:26.041Z,23.31
2023-03-11T02:29:58.000Z,23.22
2023-03-11T02:32:29.774Z,23.18
2023-03-11T02:35:01.905Z,23.13
2023-03-11T02:37:32.383Z,23.13
2023-03-11T02:40:25.399Z,23.08
2023-03-11T02:43:06.375Z,23.06
2023-03-11T02:45:41.185Z,23.02
2023-03-11T02:48:13.285Z,22.95
2023-03-11T02:50:43.534Z,22.98
2023-03-11T02:53:13.491Z,22.96
2023-03-11T02:55:44.846Z,22.95
2023-03-11T02:58:15.351Z,22.92
2023-03-11T03:00:47.035Z,22.89
2023-03-11T03:03:17.466Z,22.87
2023-03-11T03:05:48.581Z,22.81
2023-03-11T03:08:19.391Z,22.76
2023-03-11T03:10:50.599Z,22.71
2023-03-11T03:13:21.043Z,22.72
2023-03-11T03:15:50.924Z,22.72
2023-03-11T03:18:21.198Z,22.72
2023-03-11T03:20:52.477Z,22.71
2023-03-11T03:23:23.691Z,22.72
2023-03-11T03:25:53.734Z,22.71
2023-03-11T03:28:24.345Z,22.69
2023-03-11T03:30:54.467Z,22.62
2023-03-11T03:33:25.757Z,22.54
2023-03-11T03:35:56.240Z,22.50
2023-03-11T03:38:30.166Z,22.45
2023-03-11T03:41:01.369Z,22.43
2023-03-11T03:43:33.453Z,22.40
2023-03-11T03:46:07.061Z,22.29
2023-03-11T03:48:42.888Z,22.23
2023-03-11T03:51:16.515Z,22.16
2023-03-11T03:54:09.438Z,22.23
2023-03-11T03:56:40.748Z,22.23
2023-03-11T03:59:16.477Z,22.20
2023-03-11T04:01:52.547Z,22.17
2023-03-11T04:04:25.538Z,22.18
2023-03-11T04:06:56.191Z,22.16
2023-03-11T04:09:28.864Z,22.16
2023-03-11T04:11:59.750Z,22.13
2023-03-11T04:14:30.091Z,22.13
2023-03-11T04:17:03.207Z,22.14
2023-03-11T04:19:35.292Z,22.09
2023-03-11T04:22:07.311Z,22.03
2023-03-11T04:24:37.496Z,22.02
2023-03-11T04:27:07.480Z,22.00
2023-03-11T04:29:39.166Z,21.99
2023-03-11T04:32:10.094Z,21.99
2023-03-11T04:34:43.822Z,21.92
2023-03-11T04:37:17.143Z,21.83
2023-03-11T04:39:48.269Z,21.85
2023-03-11T04:42:20.245Z,21.86
2023-03-11T04:44:52.650Z,21.86
2023-03-11T04:47:23.344Z,21.85
2023-03-11T04:49:54.364Z,21.82
2023-03-11T04:52:25.610Z,21.82
2023-03-11T04:54:56.455Z,21.75
2023-03-11T04:57:27.284Z,21.71
2023-03-11T04:59:59.160Z,21.71
2023-03-11T05:02:29.856Z,21.69
2023-03-11T05:05:05.491Z,21.69
2023-03-11T05:07:35.468Z,21.73
2023-03-11T05:10:07.129Z,21.69
2023-03-11T05:12:39.825Z,21.69
2023-03-11T05:15:11.385Z,21.69
2023-03-11T05:17:41.685Z,21.67
2023-03-11T05:20:12.743Z,21.65
2023-03-11T05:22:45.169Z,21.66
2023-03-11T05:25:17.226Z,21.62
2023-03-11T05:27:47.393Z,21.62
2023-03-11T05:30:20.001Z,21.63
2023-03-11T05:32:51.665Z,21.58
2023-03-11T05:35:24.286Z,21.54
2023-03-11T05:37:56.921Z,21.59
2023-03-11T05:40:30.332Z,21.52
2023-03-11T05:43:01.485Z,21.52
2023-03-11T05:45:34.877Z,21.55
2023-03-11T05:48:05.504Z,21.51
2023-03-11T05:50:36.682Z,21.54
2023-03-11T05:53:07.622Z,21.54
2023-03-11T05:55:38.565Z,21.59
2023-03-11T05:58:08.860Z,21.55
2023-03-11T06:00:38.645Z,21.54
2023-03-11T06:03:08.662Z,21.52
2023-03-11T06:05:39.100Z,21.52
2023-03-11T06:08:10.271Z,21.51
2023-03-11T06:10:40.372Z,21.52
2023-03-11T06:13:11.117Z,21.51
2023-03-11T06:15:50.023Z,21.44
2023-03-11T06:18:22.275Z,21.46
2023-03-11T06:20:52.949Z,21.39
2023-03-11T06:23:24.002Z,21.38
2023-03-11T06:26:08.100Z,21.41
2023-03-11T06:28:44.883Z,21.39
2023-03-11T06:31:28.147Z,21.42
2023-03-11T06:34:05.256Z,21.45
2023-03-11T06:36:36.086Z,21.48
2023-03-11T06:39:07.995Z,21.52
2023-03-11T06:41:41.568Z,21.48
2023-03-11T06:44:14.307Z,21.46
2023-03-11T06:46:45.014Z,21.45
2023-03-11T06:49:16.807Z,21.48
2023-03-11T06:51:47.834Z,21.49
2023-03-11T06:54:18.560Z,21.49
2023-03-11T06:56:48.937Z,21.54
2023-03-11T06:59:18.729Z,21.56
2023-03-11T07:01:49.048Z,21.59
2023-03-11T07:04:23.006Z,21.61
2023-03-11T07:06:53.431Z,21.65
2023-03-11T07:09:26.410Z,21.66
2023-03-11T07:11:57.617Z,21.69
2023-03-11T07:14:34.005Z,21.69
2023-03-11T07:17:04.332Z,21.63
2023-03-11T07:19:39.614Z,21.63
2023-03-11T07:22:10.712Z,21.63
2023-03-11T07:24:41.567Z,21.69
2023-03-11T07:27:11.814Z,21.69
2023-03-11T07:29:41.851Z,21.67
2023-03-11T07:32:12.931Z,21.67
2023-03-11T07:34:43.446Z,21.62
2023-03-11T07:37:14.203Z,21.65
2023-03-11T07:39:44.538Z,21.65
2023-03-11T07:42:15.633Z,21.69
2023-03-11T07:44:46.609Z,21.69
2023-03-11T07:47:16.411Z,21.52
2023-03-11T07:49:46.896Z,21.42
2023-03-11T07:52:18.462Z,21.39
2023-03-11T07:54:50.378Z,21.41
2023-03-11T07:57:20.432Z,21.51
2023-03-11T07:59:50.183Z,21.51
2023-03-11T08:02:20.787Z,21.52
2023-03-11T08:04:51.132Z,21.55
2023-03-11T08:07:22.528Z,21.65
2023-03-11T08:09:52.904Z,21.62
2023-03-11T08:12:23.003Z,21.63
2023-03-11T08:14:52.977Z,21.69
2023-03-11T08:17:23.297Z,21.78
2023-03-11T08:19:53.696Z,21.75
2023-03-11T08:22:24.892Z,21.73
2023-03-11T08:24:56.513Z,21.75
2023-03-11T08:27:29.271Z,21.76
2023-03-11T08:30:00.529Z,21.72
2023-03-11T08:32:32.897Z,21.75
2023-03-11T08:35:04.050Z,21.73
2023-03-11T08:37:34.560Z,21.78
2023-03-11T08:40:04.858Z,21.75
2023-03-11T08:42:37.116Z,21.75
2023-03-11T08:45:07.945Z,21.75
2023-03-11T08:47:40.023Z,21.79
2023-03-11T08:50:15.934Z,21.76
2023-03-11T08:52:47.004Z,21.71
2023-03-11T08:55:24.835Z,21.63
2023-03-11T08:57:55.273Z,21.67
2023-03-11T09:00:25.879Z,21.63
2023-03-11T09:02:56.759Z,21.59
2023-03-11T09:05:27.800Z,21.62
2023-03-11T09:07:58.210Z,21.61
2023-03-11T09:10:28.739Z,21.63
2023-03-11T09:12:59.216Z,21.58
2023-03-11T09:15:29.255Z,21.58
2023-03-11T09:18:00.821Z,21.61
2023-03-11T09:20:32.219Z,21.56
2023-03-11T09:23:03.925Z,21.52
2023-03-11T09:25:34.235Z,21.59
2023-03-11T09:28:03.986Z,21.65
2023-03-11T09:30:35.120Z,21.63
2023-03-11T09:33:06.052Z,21.67
2023-03-11T09:35:40.179Z,21.63
2023-03-11T09:38:10.478Z,21.54
2023-03-11T09:40:55.531Z,21.63
2023-03-11T09:43:41.631Z,21.66
2023-03-11T09:46:47.108Z,21.75
2023-03-11T09:49:23.302Z,21.81
2023-03-11T09:52:12.112Z,21.85
2023-03-11T09:54:46.415Z,21.85
2023-03-11T09:57:24.885Z,21.83
2023-03-11T09:59:57.452Z,21.82
2023-03-11T10:02:29.302Z,21.90
2023-03-11T10:05:00.124Z,21.89
2023-03-11T10:07:35.792Z,21.93
2023-03-11T10:10:07.203Z,21.96
2023-03-11T10:12:47.023Z,21.99
2023-03-11T10:15:39.557Z,22.02
2023-03-11T10:18:32.724Z,22.02
2023-03-11T10:21:25.238Z,22.09
2023-03-11T10:24:04.974Z,22.18
2023-03-11T10:26:48.914Z,22.17
2023-03-11T10:29:56.714Z,22.18
2023-03-11T10:32:42.213Z,22.18
2023-03-11T10:35:20.924Z,22.12
2023-03-11T10:38:01.887Z,22.30
2023-03-11T10:40:36.467Z,22.47
2023-03-11T10:43:23.452Z,22.52
2023-03-11T10:45:55.440Z,22.62
2023-03-11T10:48:28.342Z,22.75
2023-03-11T10:51:12.677Z,22.98
2023-03-11T10:53:49.423Z,23.23
2023-03-11T10:56:34.792Z,23.31
2023-03-11T10:59:32.454Z,23.22
2023-03-11T11:02:21.205Z,23.13
2023-03-11T11:05:03.996Z,23.53
2023-03-11T11:07:43.260Z,23.88
2023-03-11T11:10:24.851Z,23.67
2023-03-11T11:12:56.986Z,23.43
2023-03-11T11:15:38.621Z,23.33
2023-03-11T11:18:25.544Z,23.54
2023-03-11T11:21:19.504Z,24.15
2023-03-11T11:24:13.849Z,25.21
2023-03-11T11:27:03.954Z,25.34
2023-03-11T11:29:36.390Z,25.45
2023-03-11T11:32:38.941Z,25.11
2023-03-11T11:35:14.435Z,25.52
2023-03-11T11:37:47.574Z,26.43
2023-03-11T11:40:18.268Z,27.08
2023-03-11T11:42:58.527Z,28.00
2023-03-11T11:45:41.523Z,28.09
2023-03-11T11:48:28.359Z,28.84
2023-03-11T11:51:05.433Z,29.79
2023-03-11T11:53:47.895Z,30.36
2023-03-11T11:56:18.794Z,30.64
2023-03-11T11:58:49.694Z,30.60
2023-03-11T12:01:28.523Z,30.80
2023-03-11T12:04:05.865Z,30.90
2023-03-11T12:06:51.337Z,31.50
2023-03-11T12:10:10.095Z,32.01
2023-03-11T12:13:14.008Z,31.86
2023-03-11T12:16:04.386Z,31.93
2023-03-11T12:18:41.535Z,31.81
2023-03-11T12:21:43.992Z,31.93
2023-03-11T12:24:14.640Z,32.61
2023-03-11T12:26:47.843Z,32.49
2023-03-11T12:29:38.925Z,31.91
2023-03-11T12:32:09.851Z,31.74
2023-03-11T12:34:42.960Z,31.87
2023-03-11T12:37:18.210Z,32.59
2023-03-11T12:39:49.156Z,32.52
2023-03-11T12:42:23.031Z,32.48
2023-03-11T12:44:55.180Z,32.62
2023-03-11T12:47:29.872Z,33.16
2023-03-11T12:50:40.752Z,33.44
2023-03-11T12:53:21.213Z,33.20
2023-03-11T12:56:12.404Z,33.37
2023-03-11T12:59:24.176Z,33.24
2023-03-11T13:02:33.118Z,33.43
2023-03-11T13:05:41.565Z,33.09
2023-03-11T13:08:49.805Z,33.80
2023-03-11T13:11:46.148Z,34.25
2023-03-11T13:14:37.320Z,34.32
2023-03-11T13:17:28.374Z,34.43
2023-03-11T13:19:59.904Z,34.28
2023-03-11T13:22:46.623Z,34.38
2023-03-11T13:25:38.653Z,34.61
2023-03-11T13:28:10.311Z,35.28
2023-03-11T13:30:46.533Z,34.70
2023-03-11T13:33:55.994Z,34.29
2023-03-11T13:36:37.776Z,34.19
2023-03-11T13:39:14.236Z,33.64
2023-03-11T13:41:46.590Z,33.87
2023-03-11T13:44:34.971Z,34.01
2023-03-11T13:47:18.443Z,33.90
2023-03-11T13:50:10.609Z,35.00
2023-03-11T13:52:54.725Z,34.52
2023-03-11T13:55:37.493Z,34.45
2023-03-11T13:58:28.933Z,34.91
2023-03-11T14:01:04.727Z,33.92
2023-03-11T14:03:42.367Z,34.35
2023-03-11T14:06:20.996Z,34.82
2023-03-11T14:08:59.312Z,34.71
2023-03-11T14:11:31.414Z,35.14
2023-03-11T14:14:03.256Z,35.03
2023-03-11T14:16:45.145Z,35.41
2023-03-11T14:19:18.959Z,35.37
2023-03-11T14:21:55.926Z,34.61
2023-03-11T14:24:32.380Z,34.76
2023-03-11T14:27:06.140Z,34.96
2023-03-11T14:29:41.591Z,35.15
2023-03-11T14:32:30.599Z,35.55
2023-03-11T14:35:19.581Z,34.77
2023-03-11T14:37:50.835Z,35.15
2023-03-11T14:40:35.665Z,35.69
2023-03-11T14:43:08.637Z,35.52
2023-03-11T14:45:43.041Z,36.06
2023-03-11T14:48:16.276Z,36.39
2023-03-11T14:50:50.893Z,35.64
2023-03-11T14:53:38.938Z,36.13
2023-03-11T14:56:22.820Z,35.93
2023-03-11T14:59:18.118Z,35.58
2023-03-11T15:01:49.779Z,35.82
2023-03-11T15:04:34.492Z,35.10
2023-03-11T15:07:07.046Z,35.52
2023-03-11T15:09:42.079Z,35.65
2023-03-11T15:12:36.021Z,35.33
2023-03-11T15:15:24.355Z,35.82
2023-03-11T15:17:58.185Z,36.41
2023-03-11T15:20:37.965Z,36.12
2023-03-11T15:23:18.827Z,35.56
2023-03-11T15:25:51.512Z,35.97
2023-03-11T15:28:33.281Z,35.93
2023-03-11T15:31:21.897Z,35.92
2023-03-11T15:33:55.664Z,35.76
2023-03-11T15:36:56.689Z,36.61
2023-03-11T15:39:43.597Z,37.03
2023-03-11T15:42:20.047Z,37.63
2023-03-11T15:44:57.972Z,36.37
2023-03-11T15:47:29.354Z,36.29
2023-03-11T15:50:00.046Z,35.95
2023-03-11T15:52:30.900Z,36.22
2023-03-11T15:55:00.810Z,36.39
2023-03-11T15:57:32.915Z,36.77
2023-03-11T16:00:05.406Z,35.76
2023-03-11T16:02:36.464Z,36.09
2023-03-11T16:05:15.496Z,36.32
2023-03-11T16:07:48.400Z,36.78
2023-03-11T16:10:22.638Z,36.67
2023-03-11T16:12:52.586Z,36.44
2023-03-11T16:15:34.260Z,36.50
2023-03-11T16:18:08.627Z,36.41
2023-03-11T16:20:45.585Z,36.87
2023-03-11T16:23:50.631Z,37.23
2023-03-11T16:26:24.060Z,36.57
2023-03-11T16:28:56.509Z,36.20
2023-03-11T16:31:29.330Z,35.75
2023-03-11T16:33:59.533Z,36.06
2023-03-11T16:36:29.312Z,36.22
2023-03-11T16:38:59.461Z,36.36
2023-03-11T16:41:29.958Z,36.29
2023-03-11T16:44:04.781Z,36.15
2023-03-11T16:46:39.186Z,36.60
2023-03-11T16:49:10.113Z,36.68
2023-03-11T16:51:41.340Z,37.30
2023-03-11T16:54:13.487Z,37.28
2023-03-11T16:56:43.422Z,36.04
2023-03-11T16:59:13.861Z,35.92
2023-03-11T17:01:44.602Z,36.63
2023-03-11T17:04:15.014Z,37.03
2023-03-11T17:06:45.209Z,36.34
2023-03-11T17:09:15.002Z,35.14
2023-03-11T17:11:45.345Z,33.57
2023-03-11T17:14:16.944Z,33.68
2023-03-11T17:16:47.859Z,35.33
2023-03-11T17:19:17.958Z,35.86
2023-03-11T17:21:48.567Z,36.04
2023-03-11T17:24:19.205Z,35.31
2023-03-11T17:26:49.657Z,35.97
2023-03-11T17:29:21.383Z,36.20
2023-03-11T17:31:51.784Z,36.22
2023-03-11T17:34:22.685Z,36.72
2023-03-11T17:36:55.130Z,36.48
2023-03-11T17:39:25.940Z,36.48
2023-03-11T17:41:57.601Z,36.44
2023-03-11T17:44:30.077Z,36.26
2023-03-11T17:47:03.956Z,36.22
2023-03-11T17:49:34.442Z,36.09
2023-03-11T17:52:06.408Z,36.27
2023-03-11T17:54:36.763Z,36.47
2023-03-11T17:57:06.581Z,36.51
2023-03-11T17:59:37.114Z,36.23
2023-03-11T18:02:07.857Z,36.26
2023-03-11T18:04:40.267Z,36.37
2023-03-11T18:07:10.773Z,35.66
2023-03-11T18:09:40.824Z,35.25
2023-03-11T18:12:12.222Z,35.79
2023-03-11T18:14:43.945Z,36.06
2023-03-11T18:17:16.757Z,36.03
2023-03-11T18:19:48.203Z,36.09
2023-03-11T18:22:17.974Z,36.04
2023-03-11T18:24:48.543Z,36.37
2023-03-11T18:27:19.621Z,36.43
2023-03-11T18:29:49.918Z,37.01
2023-03-11T18:32:22.833Z,37.19
2023-03-11T18:34:54.905Z,37.33
2023-03-11T18:37:27.533Z,37.73
2023-03-11T18:39:57.740Z,37.83
2023-03-11T18:42:28.363Z,38.48
2023-03-11T18:44:59.867Z,38.38
2023-03-11T18:47:31.101Z,38.32
2023-03-11T18:50:01.845Z,38.08
2023-03-11T18:52:32.302Z,38.11
2023-03-11T18:55:02.990Z,38.48
2023-03-11T18:57:34.941Z,38.64
2023-03-11T19:00:05.751Z,39.31
2023-03-11T19:02:36.128Z,36.07
2023-03-11T19:05:07.493Z,33.10
2023-03-11T19:07:38.446Z,36.98
2023-03-11T19:10:09.827Z,38.28
2023-03-11T19:12:42.614Z,39.03
2023-03-11T19:15:15.508Z,39.27
2023-03-11T19:17:57.389Z,39.40
2023-03-11T19:20:34.804Z,39.07
2023-03-11T19:23:05.504Z,39.17
2023-03-11T19:25:37.928Z,39.64
2023-03-11T19:28:08.632Z,39.91
2023-03-11T19:30:38.622Z,40.09
2023-03-11T19:33:09.441Z,40.07
2023-03-11T19:35:40.224Z,39.60
2023-03-11T19:38:11.517Z,39.60
2023-03-11T19:40:41.366Z,39.02
2023-03-11T19:43:13.636Z,39.09
2023-03-11T19:45:44.079Z,39.43
2023-03-11T19:48:14.980Z,39.36
2023-03-11T19:50:45.983Z,38.68
2023-03-11T19:53:16.973Z,38.71
2023-03-11T19:55:49.936Z,38.48
2023-03-11T19:58:21.377Z,38.25
2023-03-11T20:00:51.362Z,38.20
2023-03-11T20:03:23.056Z,36.94
2023-03-11T20:05:56.906Z,37.09
2023-03-11T20:08:28.558Z,36.48
2023-03-11T20:11:03.158Z,33.16
2023-03-11T20:13:35.038Z,31.12
2023-03-11T20:16:17.328Z,30.37
2023-03-11T20:18:53.108Z,29.96
2023-03-11T20:21:24.813Z,29.71
2023-03-11T20:23:58.773Z,29.61
2023-03-11T20:26:29.562Z,29.43
2023-03-11T20:29:01.142Z,29.15
2023-03-11T20:31:32.816Z,28.92
2023-03-11T20:34:03.536Z,28.97
2023-03-11T20:36:35.403Z,28.80
2023-03-11T20:39:10.257Z,28.60
2023-03-11T20:41:42.430Z,28.46
2023-03-11T20:44:15.178Z,28.36
2023-03-11T20:46:45.953Z,28.32
2023-03-11T20:49:18.517Z,28.18
2023-03-11T20:51:49.314Z,28.38
2023-03-11T20:54:21.226Z,28.29
2023-03-11T20:56:52.395Z,28.04
2023-03-11T20:59:23.588Z,28.01
2023-03-11T21:01:53.580Z,27.78
2023-03-11T21:04:25.722Z,27.64
2023-03-11T21:06:58.550Z,27.49
2023-03-11T21:09:30.502Z,27.40
2023-03-11T21:12:02.327Z,27.29
2023-03-11T21:14:32.689Z,27.22
2023-03-11T21:17:03.146Z,27.10
2023-03-11T21:19:34.469Z,27.05
2023-03-11T21:22:05.409Z,26.98
2023-03-11T21:24:35.721Z,26.88
2023-03-11T21:27:05.986Z,26.80
2023-03-11T21:29:37.444Z,26.71
2023-03-11T21:32:08.103Z,26.65
2023-03-11T21:34:38.323Z,26.57
2023-03-11T21:37:08.342Z,26.51
2023-03-11T21:39:39.546Z,26.45
2023-03-11T21:42:10.038Z,26.39
2023-03-11T21:44:39.955Z,26.30
2023-03-11T21:47:11.271Z,26.23
2023-03-11T21:49:42.113Z,26.10
2023-03-11T21:52:12.469Z,25.99
2023-03-11T21:54:42.751Z,25.94
2023-03-11T21:57:14.319Z,25.93
2023-03-11T21:59:47.268Z,25.94
2023-03-11T22:02:19.661Z,25.90
2023-03-11T22:04:50.569Z,25.88
2023-03-11T22:07:20.530Z,25.78
2023-03-11T22:09:50.667Z,25.73
2023-03-11T22:12:20.478Z,25.69
2023-03-11T22:14:50.835Z,25.64
2023-03-11T22:17:21.676Z,25.59
2023-03-11T22:19:52.385Z,25.49
2023-03-11T22:22:22.189Z,25.46
2023-03-11T22:24:52.620Z,25.46
2023-03-11T22:27:23.752Z,25.42
2023-03-11T22:29:54.549Z,25.35
2023-03-11T22:32:24.492Z,25.31
2023-03-11T22:34:54.799Z,25.31
2023-03-11T22:37:24.581Z,25.30
2023-03-11T22:39:54.948Z,25.27
2023-03-11T22:42:25.161Z,25.18
2023-03-11T22:44:57.180Z,25.14
2023-03-11T22:47:27.120Z,25.13
2023-03-11T22:49:56.957Z,25.10
2023-03-11T22:52:27.900Z,25.08
2023-03-11T22:54:58.153Z,25.07
2023-03-11T22:57:28.086Z,25.07
2023-03-11T22:59:59.838Z,25.02
2023-03-11T23:02:30.204Z,24.98
2023-03-11T23:05:01.727Z,24.90
2023-03-11T23:07:31.577Z,24.90
2023-03-11T23:10:01.789Z,24.82
2023-03-11T23:12:32.119Z,24.83
2023-03-11T23:15:05.400Z,24.83
2023-03-11T23:17:36.771Z,24.77
2023-03-11T23:20:11.425Z,24.72
2023-03-11T23:22:43.431Z,24.73
2023-03-11T23:25:17.656Z,24.66
2023-03-11T23:27:48.437Z,24.65
2023-03-11T23:30:19.195Z,24.69
2023-03-11T23:32:48.996Z,24.57
2023-03-11T23:35:20.424Z,24.57
2023-03-11T23:37:52.623Z,24.59
2023-03-11T23:40:23.346Z,24.62
2023-03-11T23:42:53.254Z,24.62
2023-03-11T23:45:24.364Z,24.56
2023-03-11T23:47:54.777Z,24.53
2023-03-11T23:50:26.133Z,24.60
2023-03-11T23:52:56.162Z,24.59
2023-03-11T23:55:26.406Z,24.55
2023-03-11T23:57:58.564Z,24.52
